Time,TemperatureF,DewpointF,PressureIn,WindDirection,WindDirectionDegrees,WindSpeedMPH,WindSpeedGustMPH,Humidity,HourlyPrecipIn,Conditions,Clouds,dailyrainin,SolarRadiationWatts/m^2,SoftwareType,DateUTC
2013-01-26 00:00:00,52.7,48.6,30.96,North,9,0.0,0.0,86,0.00,,,0.00,0,Wunderground v.1.15,2013-01-26 08:00:00,
2013-01-26 00:06:00,52.6,48.5,30.96,North,9,0.0,0.0,86,0.00,,,0.00,0,Wunderground v.1.15,2013-01-26 08:06:00,
2013-01-26 00:12:00,52.3,48.2,30.96,North,9,0.0,0.0,86,0.00,,,0.00,0,Wunderground v.1.15,2013-01-26 08:12:00,
2013-01-26 00:18:00,52.1,48.0,30.96,North,9,0.0,0.0,86,0.00,,,0.00,0,Wunderground v.1.15,2013-01-26 08:18:00,
2013-01-26 00:24:00,51.8,47.4,30.96,North,9,0.0,0.0,85,0.00,,,0.00,0,Wunderground v.1.15,2013-01-26 08:24:00,
2013-01-26 00:30:00,51.6,47.2,30.96,North,9,0.0,0.0,85,0.00,,,0.00,0,Wunderground v.1.15,2013-01-26 08:30:00,
2013-01-26 00:36:00,51.3,46.9,30.96,North,9,0.0,0.0,85,0.00,,,0.00,0,Wunderground v.1.15,2013-01-26 08:36:00,
2013-01-26 00:42:00,51.0,46.6,30.96,North,9,0.0,0.0,85,0.00,,,0.00,0,Wunderground v.1.15,2013-01-26 08:42:00,
2013-01-26 00:48:00,50.8,46.5,30.95,North,9,0.0,0.0,85,0.00,,,0.00,0,Wunderground v.1.15,2013-01-26 08:48:00,
2013-01-26 00:54:00,50.5,46.2,30.95,North,9,0.0,0.0,85,0.00,,,0.00,0,Wunderground v.1.15,2013-01-26 08:54:00,
2013-01-26 01:00:00,50.4,46.1,30.95,North,9,0.0,0.0,85,0.00,,,0.00,0,Wunderground v.1.15,2013-01-26 09:00:00,
2013-01-26 01:06:00,50.3,46.3,30.95,North,9,0.0,0.0,86,0.00,,,0.00,0,Wunderground v.1.15,2013-01-26 09:06:00,
2013-01-26 01:12:00,50.1,46.1,30.95,North,9,0.0,0.0,86,0.00,,,0.00,0,Wunderground v.1.15,2013-01-26 09:12:00,
2013-01-26 01:18:00,49.9,45.9,30.95,North,9,0.0,0.0,86,0.00,,,0.00,0,Wunderground v.1.15,2013-01-26 09:18:00,
2013-01-26 01:24:00,49.8,45.8,30.95,North,9,0.0,0.0,86,0.00,,,0.00,0,Wunderground v.1.15,2013-01-26 09:24:00,
2013-01-26 01:30:00,49.9,45.9,30.95,North,9,0.0,0.0,86,0.00,,,0.00,0,Wunderground v.1.15,2013-01-26 09:30:00,
2013-01-26 01:36:00,49.8,45.8,30.95,North,9,0.0,0.0,86,0.00,,,0.00,0,Wunderground v.1.15,2013-01-26 09:36:00,
2013-01-26 01:42:00,49.7,45.7,30.95,North,9,0.0,0.0,86,0.00,,,0.00,0,Wunderground v.1.15,2013-01-26 09:42:00,
2013-01-26 01:48:00,49.6,45.6,30.95,North,9,0.0,0.0,86,0.00,,,0.00,0,Wunderground v.1.15,2013-01-26 09:48:00,
2013-01-26 01:54:00,49.4,45.4,30.95,North,9,0.0,0.0,86,0.00,,,0.00,0,Wunderground v.1.15,2013-01-26 09:54:00,
2013-01-26 02:00:00,49.2,45.2,30.95,North,9,0.0,0.0,86,0.00,,,0.00,0,Wunderground v.1.15,2013-01-26 10:00:00,
2013-01-26 02:06:00,49.0,45.0,30.95,North,9,0.0,0.0,86,0.00,,,0.00,0,Wunderground v.1.15,2013-01-26 10:06:00,
2013-01-26 02:12:00,48.7,44.7,30.95,North,9,0.0,0.0,86,0.00,,,0.00,0,Wunderground v.1.15,2013-01-26 10:12:00,
2013-01-26 02:18:00,48.5,44.5,30.95,North,9,0.0,0.0,86,0.00,,,0.00,0,Wunderground v.1.15,2013-01-26 10:18:00,
2013-01-26 02:24:00,48.4,44.7,30.95,North,9,0.0,0.0,87,0.00,,,0.00,0,Wunderground v.1.15,2013-01-26 10:24:00,
2013-01-26 02:30:00,48.3,44.6,30.95,North,9,0.0,0.0,87,0.00,,,0.00,0,Wunderground v.1.15,2013-01-26 10:30:00,
2013-01-26 02:36:00,48.2,45.4,30.95,North,9,0.0,0.0,90,0.00,,,0.00,0,Wunderground v.1.15,2013-01-26 10:36:00,
2013-01-26 02:42:00,48.0,44.0,30.95,North,9,0.0,0.0,86,0.00,,,0.00,0,Wunderground v.1.15,2013-01-26 10:42:00,
2013-01-26 02:48:00,47.8,44.1,30.95,North,9,0.0,0.0,87,0.00,,,0.00,0,Wunderground v.1.15,2013-01-26 10:48:00,
2013-01-26 02:54:00,47.7,44.0,30.95,North,9,0.0,0.0,87,0.00,,,0.00,0,Wunderground v.1.15,2013-01-26 10:54:00,
2013-01-26 03:00:00,47.4,43.4,30.95,North,9,0.0,0.0,86,0.00,,,0.00,0,Wunderground v.1.15,2013-01-26 11:00:00,
2013-01-26 03:06:00,47.2,43.5,30.95,North,9,0.0,0.0,87,0.00,,,0.00,0,Wunderground v.1.15,2013-01-26 11:06:00,
2013-01-26 03:12:00,47.0,43.3,30.95,North,9,0.0,0.0,87,0.00,,,0.00,0,Wunderground v.1.15,2013-01-26 11:12:00,
2013-01-26 03:18:00,46.9,43.2,30.95,North,9,0.0,0.0,87,0.00,,,0.00,0,Wunderground v.1.15,2013-01-26 11:18:00,
2013-01-26 03:24:00,46.8,43.1,30.94,North,9,0.0,0.0,87,0.00,,,0.00,0,Wunderground v.1.15,2013-01-26 11:24:00,
2013-01-26 03:30:00,46.9,43.2,30.94,North,9,0.0,0.0,87,0.00,,,0.00,0,Wunderground v.1.15,2013-01-26 11:30:00,
2013-01-26 03:36:00,47.0,43.3,30.94,North,9,0.0,0.0,87,0.00,,,0.00,0,Wunderground v.1.15,2013-01-26 11:36:00,
2013-01-26 03:42:00,47.0,43.3,30.94,North,9,0.0,0.0,87,0.00,,,0.00,0,Wunderground v.1.15,2013-01-26 11:42:00,
2013-01-26 03:48:00,46.9,43.2,30.94,North,9,0.0,0.0,87,0.00,,,0.00,0,Wunderground v.1.15,2013-01-26 11:48:00,
2013-01-26 03:54:00,46.8,43.4,30.94,North,9,0.0,0.0,88,0.00,,,0.00,0,Wunderground v.1.15,2013-01-26 11:54:00,
2013-01-26 04:00:00,46.7,43.3,30.94,North,9,0.0,0.0,88,0.00,,,0.00,0,Wunderground v.1.15,2013-01-26 12:00:00,
2013-01-26 04:06:00,46.8,43.4,30.94,North,9,0.0,0.0,88,0.00,,,0.00,0,Wunderground v.1.15,2013-01-26 12:06:00,
2013-01-26 04:12:00,46.7,43.3,30.94,North,9,0.0,0.0,88,0.00,,,0.00,0,Wunderground v.1.15,2013-01-26 12:12:00,
2013-01-26 04:18:00,46.8,43.4,30.94,North,9,0.0,0.0,88,0.00,,,0.00,0,Wunderground v.1.15,2013-01-26 12:18:00,
2013-01-26 04:24:00,46.9,43.5,30.94,North,9,0.0,0.0,88,0.00,,,0.00,0,Wunderground v.1.15,2013-01-26 12:24:00,
2013-01-26 04:30:00,47.1,43.7,30.94,North,9,0.0,0.0,88,0.00,,,0.00,0,Wunderground v.1.15,2013-01-26 12:30:00,
2013-01-26 04:36:00,47.2,43.8,30.93,North,9,0.0,0.0,88,0.00,,,0.00,0,Wunderground v.1.15,2013-01-26 12:36:00,
2013-01-26 04:42:00,47.4,44.0,30.93,North,9,0.0,0.0,88,0.00,,,0.00,0,Wunderground v.1.15,2013-01-26 12:42:00,
2013-01-26 04:48:00,47.6,44.2,30.93,North,9,0.0,0.0,88,0.00,,,0.00,0,Wunderground v.1.15,2013-01-26 12:48:00,
2013-01-26 04:54:00,47.7,44.6,30.93,North,9,0.0,0.0,89,0.00,,,0.00,0,Wunderground v.1.15,2013-01-26 12:54:00,
2013-01-26 05:00:00,47.9,44.8,30.93,North,9,0.0,0.0,89,0.00,,,0.00,0,Wunderground v.1.15,2013-01-26 13:00:00,
2013-01-26 05:06:00,48.0,44.9,30.94,North,9,0.0,0.0,89,0.00,,,0.00,0,Wunderground v.1.15,2013-01-26 13:06:00,
2013-01-26 05:12:00,48.2,45.1,30.93,North,9,0.0,1.0,89,0.00,,,0.00,0,Wunderground v.1.15,2013-01-26 13:12:00,
2013-01-26 05:18:00,48.6,45.5,30.93,North,9,0.0,1.0,89,0.00,,,0.00,0,Wunderground v.1.15,2013-01-26 13:18:00,
2013-01-26 05:24:00,48.8,45.7,30.93,North,9,0.0,0.0,89,0.00,,,0.00,0,Wunderground v.1.15,2013-01-26 13:24:00,
2013-01-26 05:30:00,48.9,45.8,30.93,North,9,0.0,0.0,89,0.00,,,0.00,0,Wunderground v.1.15,2013-01-26 13:30:00,
2013-01-26 05:36:00,49.0,45.9,30.93,North,9,0.0,0.0,89,0.00,,,0.00,0,Wunderground v.1.15,2013-01-26 13:36:00,
2013-01-26 05:42:00,49.1,46.0,30.93,North,9,0.0,0.0,89,0.00,,,0.00,0,Wunderground v.1.15,2013-01-26 13:42:00,
2013-01-26 05:48:00,49.1,46.0,30.93,North,9,0.0,0.0,89,0.00,,,0.00,0,Wunderground v.1.15,2013-01-26 13:48:00,
2013-01-26 05:54:00,49.1,46.0,30.93,North,9,0.0,0.0,89,0.00,,,0.00,0,Wunderground v.1.15,2013-01-26 13:54:00,
2013-01-26 06:00:00,49.1,46.0,30.93,North,9,0.0,0.0,89,0.00,,,0.00,0,Wunderground v.1.15,2013-01-26 14:00:00,
2013-01-26 06:06:00,49.2,46.1,30.93,North,9,0.0,0.0,89,0.00,,,0.00,0,Wunderground v.1.15,2013-01-26 14:06:00,
2013-01-26 06:12:00,49.2,46.1,30.93,North,9,0.0,0.0,89,0.00,,,0.00,0,Wunderground v.1.15,2013-01-26 14:12:00,
2013-01-26 06:18:00,49.2,46.1,30.93,North,9,0.0,0.0,89,0.00,,,0.00,0,Wunderground v.1.15,2013-01-26 14:18:00,
2013-01-26 06:24:00,49.2,46.1,30.94,North,9,0.0,0.0,89,0.00,,,0.00,0,Wunderground v.1.15,2013-01-26 14:24:00,
2013-01-26 06:30:00,49.2,46.1,30.94,North,9,0.0,0.0,89,0.00,,,0.00,0,Wunderground v.1.15,2013-01-26 14:30:00,
2013-01-26 06:36:00,49.2,46.1,30.94,North,9,0.0,0.0,89,0.00,,,0.00,0,Wunderground v.1.15,2013-01-26 14:36:00,
2013-01-26 06:42:00,49.2,46.1,30.94,North,9,0.0,0.0,89,0.00,,,0.00,0,Wunderground v.1.15,2013-01-26 14:42:00,
2013-01-26 06:48:00,49.2,46.1,30.94,North,9,0.0,0.0,89,0.00,,,0.00,0,Wunderground v.1.15,2013-01-26 14:48:00,
2013-01-26 06:54:00,49.2,46.1,30.94,North,9,0.0,1.0,89,0.00,,,0.00,0,Wunderground v.1.15,2013-01-26 14:54:00,
2013-01-26 07:00:00,49.4,46.6,30.94,North,9,0.0,0.0,90,0.00,,,0.00,0,Wunderground v.1.15,2013-01-26 15:00:00,
2013-01-26 07:06:00,49.5,46.7,30.94,North,9,0.0,0.0,90,0.00,,,0.00,0,Wunderground v.1.15,2013-01-26 15:06:00,
2013-01-26 07:12:00,49.6,46.8,30.94,North,9,0.0,0.0,90,0.00,,,0.00,0,Wunderground v.1.15,2013-01-26 15:12:00,
2013-01-26 07:18:00,49.6,46.8,30.94,North,9,0.0,0.0,90,0.00,,,0.00,0,Wunderground v.1.15,2013-01-26 15:18:00,
2013-01-26 07:24:00,49.8,47.0,30.94,North,9,0.0,0.0,90,0.00,,,0.00,9,Wunderground v.1.15,2013-01-26 15:24:00,
2013-01-26 07:30:00,49.9,47.1,30.94,North,9,0.0,0.0,90,0.00,,,0.00,14,Wunderground v.1.15,2013-01-26 15:30:00,
2013-01-26 07:36:00,50.0,47.2,30.94,North,9,0.0,0.0,90,0.00,,,0.00,14,Wunderground v.1.15,2013-01-26 15:36:00,
2013-01-26 07:42:00,50.1,47.3,30.94,North,9,0.0,0.0,90,0.00,,,0.00,18,Wunderground v.1.15,2013-01-26 15:42:00,
2013-01-26 07:48:00,50.1,47.3,30.94,North,9,0.0,1.0,90,0.00,,,0.00,21,Wunderground v.1.15,2013-01-26 15:48:00,
2013-01-26 07:54:00,50.0,47.2,30.94,North,9,0.0,0.0,90,0.00,,,0.00,25,Wunderground v.1.15,2013-01-26 15:54:00,
2013-01-26 08:00:00,50.0,47.2,30.94,North,9,0.0,0.0,90,0.00,,,0.00,98,Wunderground v.1.15,2013-01-26 16:00:00,
2013-01-26 08:06:00,50.1,47.3,30.94,North,9,0.0,0.0,90,0.00,,,0.00,47,Wunderground v.1.15,2013-01-26 16:06:00,
2013-01-26 08:12:00,50.1,47.3,30.94,North,9,0.0,0.0,90,0.00,,,0.00,26,Wunderground v.1.15,2013-01-26 16:12:00,
2013-01-26 08:18:00,50.2,47.4,30.94,North,9,0.0,0.0,90,0.00,,,0.00,25,Wunderground v.1.15,2013-01-26 16:18:00,
2013-01-26 08:24:00,50.3,47.5,30.94,North,9,0.0,0.0,90,0.00,,,0.00,40,Wunderground v.1.15,2013-01-26 16:24:00,
2013-01-26 08:30:00,50.5,47.7,30.94,North,9,0.0,0.0,90,0.00,,,0.00,42,Wunderground v.1.15,2013-01-26 16:30:00,
2013-01-26 08:36:00,50.6,47.8,30.94,North,9,0.0,0.0,90,0.00,,,0.00,33,Wunderground v.1.15,2013-01-26 16:36:00,
2013-01-26 08:42:00,50.8,48.0,30.94,North,9,0.0,0.0,90,0.00,,,0.00,35,Wunderground v.1.15,2013-01-26 16:42:00,
2013-01-26 08:48:00,50.9,48.1,30.95,North,9,0.0,0.0,90,0.00,,,0.00,33,Wunderground v.1.15,2013-01-26 16:48:00,
2013-01-26 08:54:00,51.0,48.2,30.95,North,9,0.0,0.0,90,0.00,,,0.00,40,Wunderground v.1.15,2013-01-26 16:54:00,
2013-01-26 09:00:00,51.1,48.3,30.95,North,9,0.0,0.0,90,0.00,,,0.00,53,Wunderground v.1.15,2013-01-26 17:00:00,
2013-01-26 09:06:00,51.2,48.4,30.95,North,9,0.0,0.0,90,0.00,,,0.00,42,Wunderground v.1.15,2013-01-26 17:06:00,
2013-01-26 09:12:00,51.3,48.5,30.95,North,9,0.0,0.0,90,0.00,,,0.00,40,Wunderground v.1.15,2013-01-26 17:12:00,
2013-01-26 09:18:00,51.4,48.6,30.95,North,9,0.0,0.0,90,0.00,,,0.00,37,Wunderground v.1.15,2013-01-26 17:18:00,
2013-01-26 09:24:00,51.5,48.7,30.96,North,9,0.0,1.0,90,0.00,,,0.00,23,Wunderground v.1.15,2013-01-26 17:24:00,
2013-01-26 09:30:00,51.4,48.6,30.96,North,360,2.0,2.0,90,0.00,,,0.00,33,Wunderground v.1.15,2013-01-26 17:30:00,
2013-01-26 09:36:00,51.3,48.5,30.96,North,9,3.0,4.0,90,0.00,,,0.00,56,Wunderground v.1.15,2013-01-26 17:36:00,
2013-01-26 09:42:00,51.2,48.4,30.96,North,9,2.0,2.0,90,0.00,,,0.00,88,Wunderground v.1.15,2013-01-26 17:42:00,
2013-01-26 09:48:00,51.1,48.3,30.96,North,9,1.0,3.0,90,0.00,,,0.00,116,Wunderground v.1.15,2013-01-26 17:48:00,
2013-01-26 09:54:00,51.0,48.2,30.96,North,360,2.0,2.0,90,0.00,,,0.00,186,Wunderground v.1.15,2013-01-26 17:54:00,
2013-01-26 10:00:00,50.7,47.9,30.97,NNW,343,3.0,4.0,90,0.00,,,0.00,190,Wunderground v.1.15,2013-01-26 18:00:00,
2013-01-26 10:06:00,50.4,47.3,30.97,WNW,296,4.0,4.0,89,0.00,,,0.00,239,Wunderground v.1.15,2013-01-26 18:06:00,
2013-01-26 10:12:00,50.7,47.6,30.97,WNW,302,3.0,3.0,89,0.00,,,0.00,499,Wunderground v.1.15,2013-01-26 18:12:00,
2013-01-26 10:18:00,51.2,47.5,30.97,West,279,2.0,3.0,87,0.00,,,0.00,450,Wunderground v.1.15,2013-01-26 18:18:00,
2013-01-26 10:24:00,51.9,47.5,30.97,WNW,298,2.0,3.0,85,0.00,,,0.00,464,Wunderground v.1.15,2013-01-26 18:24:00,
2013-01-26 10:30:00,52.9,46.6,30.97,WNW,283,3.0,3.0,79,0.00,,,0.00,485,Wunderground v.1.15,2013-01-26 18:30:00,
2013-01-26 10:36:00,54.1,44.9,30.97,NW,315,4.0,4.0,71,0.00,,,0.00,497,Wunderground v.1.15,2013-01-26 18:36:00,
2013-01-26 10:42:00,54.9,43.7,30.97,NW,322,5.0,10.0,66,0.00,,,0.00,517,Wunderground v.1.15,2013-01-26 18:42:00,
2013-01-26 10:48:00,55.7,43.3,30.97,NNW,334,4.0,10.0,63,0.00,,,0.00,526,Wunderground v.1.15,2013-01-26 18:48:00,
2013-01-26 10:54:00,56.3,41.7,30.97,WNW,296,4.0,6.0,58,0.00,,,0.00,536,Wunderground v.1.15,2013-01-26 18:54:00,
2013-01-26 11:00:00,56.7,40.7,30.97,SW,218,4.0,4.0,55,0.00,,,0.00,545,Wunderground v.1.15,2013-01-26 19:00:00,
2013-01-26 11:06:00,57.0,41.0,30.97,WNW,290,4.0,4.0,55,0.00,,,0.00,555,Wunderground v.1.15,2013-01-26 19:06:00,
2013-01-26 11:12:00,57.2,41.2,30.97,WNW,298,4.0,7.0,55,0.00,,,0.00,559,Wunderground v.1.15,2013-01-26 19:12:00,
2013-01-26 11:18:00,57.3,41.7,30.97,WNW,287,5.0,7.0,56,0.00,,,0.00,557,Wunderground v.1.15,2013-01-26 19:18:00,
2013-01-26 11:24:00,57.5,41.9,30.96,North,355,4.0,6.0,56,0.00,,,0.00,570,Wunderground v.1.15,2013-01-26 19:24:00,
2013-01-26 11:30:00,57.6,42.0,30.96,West,265,3.0,3.0,56,0.00,,,0.00,578,Wunderground v.1.15,2013-01-26 19:30:00,
2013-01-26 11:36:00,58.1,42.0,30.96,NW,315,3.0,3.0,55,0.00,,,0.00,584,Wunderground v.1.15,2013-01-26 19:36:00,
2013-01-26 11:42:00,58.5,41.4,30.96,WSW,238,4.0,4.0,53,0.00,,,0.00,589,Wunderground v.1.15,2013-01-26 19:42:00,
2013-01-26 11:48:00,58.7,41.1,30.95,West,273,3.0,5.0,52,0.00,,,0.00,592,Wunderground v.1.15,2013-01-26 19:48:00,
2013-01-26 11:54:00,59.0,40.9,30.95,West,273,3.0,10.0,51,0.00,,,0.00,596,Wunderground v.1.15,2013-01-26 19:54:00,
2013-01-26 12:00:00,59.0,41.4,30.95,West,273,4.0,4.0,52,0.00,,,0.00,599,Wunderground v.1.15,2013-01-26 20:00:00,
2013-01-26 12:06:00,59.0,41.4,30.94,WNW,289,3.0,4.0,52,0.00,,,0.00,598,Wunderground v.1.15,2013-01-26 20:06:00,
2013-01-26 12:12:00,59.0,39.9,30.94,NNW,333,3.0,4.0,49,0.00,,,0.00,599,Wunderground v.1.15,2013-01-26 20:12:00,
2013-01-26 12:18:00,58.9,39.2,30.94,NW,319,5.0,5.0,48,0.00,,,0.00,598,Wunderground v.1.15,2013-01-26 20:18:00,
2013-01-26 12:24:00,59.0,39.3,30.94,NNW,333,4.0,6.0,48,0.00,,,0.00,596,Wunderground v.1.15,2013-01-26 20:24:00,
2013-01-26 12:30:00,58.4,39.3,30.93,West,278,6.0,6.0,49,0.00,,,0.00,598,Wunderground v.1.15,2013-01-26 20:30:00,
2013-01-26 12:36:00,58.6,40.5,30.93,West,277,5.0,6.0,51,0.00,,,0.00,598,Wunderground v.1.15,2013-01-26 20:36:00,
2013-01-26 12:42:00,59.0,40.9,30.93,West,270,4.0,4.0,51,0.00,,,0.00,599,Wunderground v.1.15,2013-01-26 20:42:00,
2013-01-26 12:48:00,59.6,40.9,30.93,North,355,3.0,5.0,50,0.00,,,0.00,598,Wunderground v.1.15,2013-01-26 20:48:00,
2013-01-26 12:54:00,59.3,41.2,30.93,West,276,4.0,6.0,51,0.00,,,0.00,598,Wunderground v.1.15,2013-01-26 20:54:00,
2013-01-26 13:00:00,59.5,41.3,30.93,WNW,283,4.0,4.0,51,0.00,,,0.00,592,Wunderground v.1.15,2013-01-26 21:00:00,
2013-01-26 13:06:00,59.3,40.7,30.93,NW,326,5.0,9.0,50,0.00,,,0.00,594,Wunderground v.1.15,2013-01-26 21:06:00,
2013-01-26 13:12:00,59.2,41.1,30.93,NNW,334,5.0,6.0,51,0.00,,,0.00,587,Wunderground v.1.15,2013-01-26 21:12:00,
2013-01-26 13:18:00,59.2,41.6,30.92,West,281,5.0,9.0,52,0.00,,,0.00,578,Wunderground v.1.15,2013-01-26 21:18:00,
2013-01-26 13:24:00,59.4,41.3,30.92,West,275,4.0,6.0,51,0.00,,,0.00,570,Wunderground v.1.15,2013-01-26 21:24:00,
2013-01-26 13:30:00,59.0,41.4,30.92,West,273,5.0,5.0,52,0.00,,,0.00,570,Wunderground v.1.15,2013-01-26 21:30:00,
2013-01-26 13:36:00,59.0,40.9,30.92,NW,309,5.0,10.0,51,0.00,,,0.00,601,Wunderground v.1.15,2013-01-26 21:36:00,
2013-01-26 13:42:00,59.0,41.4,30.92,NW,313,4.0,5.0,52,0.00,,,0.00,471,Wunderground v.1.15,2013-01-26 21:42:00,
2013-01-26 13:48:00,58.7,41.6,30.92,NNW,332,5.0,7.0,53,0.00,,,0.00,617,Wunderground v.1.15,2013-01-26 21:48:00,
2013-01-26 13:54:00,58.6,41.5,30.92,West,276,5.0,5.0,53,0.00,,,0.00,584,Wunderground v.1.15,2013-01-26 21:54:00,
2013-01-26 14:00:00,58.7,41.1,30.92,NW,323,5.0,10.0,52,0.00,,,0.00,563,Wunderground v.1.15,2013-01-26 22:00:00,
2013-01-26 14:06:00,57.9,40.9,30.93,WNW,291,5.0,10.0,53,0.00,,,0.00,548,Wunderground v.1.15,2013-01-26 22:06:00,
2013-01-26 14:12:00,57.4,41.4,30.93,North,350,4.0,12.0,55,0.00,,,0.00,127,Wunderground v.1.15,2013-01-26 22:12:00,
2013-01-26 14:18:00,56.9,41.8,30.93,NW,321,5.0,12.0,57,0.00,,,0.00,540,Wunderground v.1.15,2013-01-26 22:18:00,
2013-01-26 14:24:00,56.9,42.3,30.93,West,281,6.0,6.0,58,0.00,,,0.00,499,Wunderground v.1.15,2013-01-26 22:24:00,
2013-01-26 14:30:00,57.0,42.8,30.93,NW,321,6.0,7.0,59,0.00,,,0.00,547,Wunderground v.1.15,2013-01-26 22:30:00,
2013-01-26 14:36:00,56.9,41.8,30.94,NNW,342,6.0,14.0,57,0.00,,,0.00,149,Wunderground v.1.15,2013-01-26 22:36:00,
2013-01-26 14:42:00,56.1,41.5,30.94,West,265,8.0,10.0,58,0.00,,,0.00,125,Wunderground v.1.15,2013-01-26 22:42:00,
2013-01-26 14:48:00,55.4,40.9,30.94,NNW,335,7.0,10.0,58,0.00,,,0.00,134,Wunderground v.1.15,2013-01-26 22:48:00,
2013-01-26 14:54:00,55.2,40.7,30.94,SW,225,6.0,7.0,58,0.00,,,0.00,294,Wunderground v.1.15,2013-01-26 22:54:00,
2013-01-26 15:00:00,55.3,40.3,30.94,NNE,32,6.0,6.0,57,0.00,,,0.00,127,Wunderground v.1.15,2013-01-26 23:00:00,
2013-01-26 15:06:00,55.0,40.0,30.94,WNW,286,6.0,7.0,57,0.00,,,0.00,445,Wunderground v.1.15,2013-01-26 23:06:00,
2013-01-26 15:12:00,55.1,40.6,30.94,NNW,327,5.0,9.0,58,0.00,,,0.00,128,Wunderground v.1.15,2013-01-26 23:12:00,
2013-01-26 15:18:00,55.1,39.7,30.95,NNW,348,5.0,9.0,56,0.00,,,0.00,243,Wunderground v.1.15,2013-01-26 23:18:00,
2013-01-26 15:24:00,55.1,39.7,30.94,SE,130,6.0,7.0,56,0.00,,,0.00,364,Wunderground v.1.15,2013-01-26 23:24:00,
2013-01-26 15:30:00,55.3,38.4,30.94,NNW,327,6.0,6.0,53,0.00,,,0.00,329,Wunderground v.1.15,2013-01-26 23:30:00,
2013-01-26 15:36:00,55.2,39.3,30.94,North,5,7.0,16.0,55,0.00,,,0.00,287,Wunderground v.1.15,2013-01-26 23:36:00,
2013-01-26 15:42:00,55.3,39.9,30.94,WSW,254,6.0,6.0,56,0.00,,,0.00,248,Wunderground v.1.15,2013-01-26 23:42:00,
2013-01-26 15:48:00,55.3,39.9,30.94,WNW,300,5.0,6.0,56,0.00,,,0.00,269,Wunderground v.1.15,2013-01-26 23:48:00,
2013-01-26 15:54:00,55.4,40.4,30.94,WNW,293,4.0,5.0,57,0.00,,,0.00,260,Wunderground v.1.15,2013-01-26 23:54:00,
2013-01-26 16:00:00,55.3,40.8,30.94,WNW,290,4.0,4.0,58,0.00,,,0.00,239,Wunderground v.1.15,2013-01-27 00:00:00,
2013-01-26 16:06:00,55.3,40.8,30.94,West,271,4.0,5.0,58,0.00,,,0.00,225,Wunderground v.1.15,2013-01-27 00:06:00,
2013-01-26 16:12:00,55.1,40.1,30.94,NNW,329,4.0,7.0,57,0.00,,,0.00,77,Wunderground v.1.15,2013-01-27 00:12:00,
2013-01-26 16:18:00,54.7,40.6,30.94,NW,319,4.0,7.0,59,0.00,,,0.00,109,Wunderground v.1.15,2013-01-27 00:18:00,
2013-01-26 16:24:00,54.3,41.1,30.94,NW,309,4.0,5.0,61,0.00,,,0.00,49,Wunderground v.1.15,2013-01-27 00:24:00,
2013-01-26 16:30:00,53.9,40.8,30.94,West,272,3.0,3.0,61,0.00,,,0.00,102,Wunderground v.1.15,2013-01-27 00:30:00,
2013-01-26 16:36:00,53.4,40.3,30.94,West,271,3.0,4.0,61,0.00,,,0.00,37,Wunderground v.1.15,2013-01-27 00:36:00,
2013-01-26 16:42:00,53.0,39.9,30.94,West,271,4.0,5.0,61,0.00,,,0.00,39,Wunderground v.1.15,2013-01-27 00:42:00,
2013-01-26 16:48:00,52.6,39.5,30.95,WNW,296,4.0,9.0,61,0.00,,,0.00,28,Wunderground v.1.15,2013-01-27 00:48:00,
2013-01-26 16:54:00,52.3,39.7,30.95,West,269,3.0,4.0,62,0.00,,,0.00,23,Wunderground v.1.15,2013-01-27 00:54:00,
2013-01-26 17:00:00,52.0,39.8,30.95,West,275,2.0,2.0,63,0.00,,,0.00,21,Wunderground v.1.15,2013-01-27 01:00:00,
2013-01-26 17:06:00,51.8,40.0,30.95,West,271,2.0,3.0,64,0.00,,,0.00,16,Wunderground v.1.15,2013-01-27 01:06:00,
2013-01-26 17:12:00,51.5,39.7,30.95,West,281,2.0,4.0,64,0.00,,,0.00,12,Wunderground v.1.15,2013-01-27 01:12:00,
2013-01-26 17:18:00,51.3,39.9,30.95,West,269,2.0,4.0,65,0.00,,,0.00,9,Wunderground v.1.15,2013-01-27 01:18:00,
2013-01-26 17:24:00,51.1,39.7,30.95,West,279,1.0,3.0,65,0.00,,,0.00,7,Wunderground v.1.15,2013-01-27 01:24:00,
2013-01-26 17:30:00,50.9,39.9,30.96,WNW,302,2.0,2.0,66,0.00,,,0.00,0,Wunderground v.1.15,2013-01-27 01:30:00,
2013-01-26 17:36:00,50.6,39.7,30.96,WNW,290,1.0,2.0,66,0.00,,,0.00,0,Wunderground v.1.15,2013-01-27 01:36:00,
2013-01-26 17:42:00,50.5,39.9,30.96,WNW,284,2.0,2.0,67,0.00,,,0.00,0,Wunderground v.1.15,2013-01-27 01:42:00,
2013-01-26 17:48:00,50.4,39.9,30.96,NNW,347,3.0,6.0,67,0.00,,,0.00,0,Wunderground v.1.15,2013-01-27 01:48:00,
2013-01-26 17:54:00,50.3,39.8,30.96,West,275,1.0,2.0,67,0.00,,,0.00,0,Wunderground v.1.15,2013-01-27 01:54:00,
2013-01-26 18:00:00,50.1,39.9,30.96,WNW,286,1.0,1.0,68,0.00,,,0.00,0,Wunderground v.1.15,2013-01-27 02:00:00,
2013-01-26 18:06:00,49.9,39.8,30.97,West,275,2.0,2.0,68,0.00,,,0.00,0,Wunderground v.1.15,2013-01-27 02:06:00,
2013-01-26 18:12:00,49.7,39.9,30.97,NW,323,3.0,3.0,69,0.00,,,0.00,0,Wunderground v.1.15,2013-01-27 02:12:00,
2013-01-26 18:18:00,49.7,39.9,30.97,West,267,2.0,3.0,69,0.00,,,0.00,0,Wunderground v.1.15,2013-01-27 02:18:00,
2013-01-26 18:24:00,49.5,40.1,30.97,NW,323,2.0,3.0,70,0.00,,,0.00,0,Wunderground v.1.15,2013-01-27 02:24:00,
2013-01-26 18:30:00,49.4,40.0,30.97,NW,315,1.0,1.0,70,0.00,,,0.00,0,Wunderground v.1.15,2013-01-27 02:30:00,
2013-01-26 18:36:00,49.2,39.8,30.97,NW,315,0.0,1.0,70,0.00,,,0.00,0,Wunderground v.1.15,2013-01-27 02:36:00,
2013-01-26 18:42:00,49.0,39.6,30.98,NW,315,0.0,0.0,70,0.00,,,0.00,0,Wunderground v.1.15,2013-01-27 02:42:00,
2013-01-26 18:48:00,48.8,39.4,30.98,NW,315,0.0,0.0,70,0.00,,,0.00,0,Wunderground v.1.15,2013-01-27 02:48:00,
2013-01-26 18:54:00,48.5,39.2,30.98,NW,315,0.0,0.0,70,0.00,,,0.00,0,Wunderground v.1.15,2013-01-27 02:54:00,
2013-01-26 19:00:00,48.2,39.2,30.98,NW,315,0.0,0.0,71,0.00,,,0.00,0,Wunderground v.1.15,2013-01-27 03:00:00,
2013-01-26 19:06:00,47.9,38.9,30.98,NW,315,0.0,0.0,71,0.00,,,0.00,0,Wunderground v.1.15,2013-01-27 03:06:00,
2013-01-26 19:12:00,47.6,38.7,30.98,NW,315,0.0,0.0,71,0.00,,,0.00,0,Wunderground v.1.15,2013-01-27 03:12:00,
2013-01-26 19:18:00,47.2,38.6,30.98,NW,315,0.0,0.0,72,0.00,,,0.00,0,Wunderground v.1.15,2013-01-27 03:18:00,
2013-01-26 19:24:00,46.9,38.3,30.98,NW,315,0.0,0.0,72,0.00,,,0.00,0,Wunderground v.1.15,2013-01-27 03:24:00,
2013-01-26 19:30:00,46.6,38.4,30.99,NW,315,0.0,0.0,73,0.00,,,0.00,0,Wunderground v.1.15,2013-01-27 03:30:00,
2013-01-26 19:36:00,46.3,38.1,30.98,NW,315,0.0,0.0,73,0.00,,,0.00,0,Wunderground v.1.15,2013-01-27 03:36:00,
2013-01-26 19:42:00,46.1,38.3,30.99,NW,315,0.0,0.0,74,0.00,,,0.00,0,Wunderground v.1.15,2013-01-27 03:42:00,
2013-01-26 19:48:00,45.8,38.0,30.99,NW,315,0.0,0.0,74,0.00,,,0.00,0,Wunderground v.1.15,2013-01-27 03:48:00,
2013-01-26 19:56:00,45.4,37.9,30.99,NW,315,0.0,0.0,75,0.00,,,0.00,0,Wunderground v.1.15,2013-01-27 03:56:00,
2013-01-26 20:02:00,45.0,37.6,30.99,NW,315,0.0,0.0,75,0.00,,,0.00,0,Wunderground v.1.15,2013-01-27 04:02:00,
2013-01-26 20:08:00,44.8,37.7,30.99,NW,315,0.0,0.0,76,0.00,,,0.00,0,Wunderground v.1.15,2013-01-27 04:08:00,
2013-01-26 20:14:00,44.5,37.7,30.99,NW,315,0.0,0.0,77,0.00,,,0.00,0,Wunderground v.1.15,2013-01-27 04:14:00,
2013-01-26 20:20:00,44.3,37.5,30.99,NW,315,0.0,0.0,77,0.00,,,0.00,0,Wunderground v.1.15,2013-01-27 04:20:00,
2013-01-26 20:26:00,44.1,37.3,30.99,NW,315,0.0,0.0,77,0.00,,,0.00,0,Wunderground v.1.15,2013-01-27 04:26:00,
2013-01-26 20:32:00,43.8,37.1,30.99,NW,315,0.0,0.0,77,0.00,,,0.00,0,Wunderground v.1.15,2013-01-27 04:32:00,
2013-01-26 20:38:00,43.5,37.1,30.99,NW,315,0.0,0.0,78,0.00,,,0.00,0,Wunderground v.1.15,2013-01-27 04:38:00,
2013-01-26 20:44:00,43.2,36.8,30.99,NW,315,0.0,0.0,78,0.00,,,0.00,0,Wunderground v.1.15,2013-01-27 04:44:00,
2013-01-26 20:50:00,43.0,36.6,30.99,NW,315,0.0,0.0,78,0.00,,,0.00,0,Wunderground v.1.15,2013-01-27 04:50:00,
2013-01-26 20:56:00,42.8,36.7,30.99,NW,315,0.0,0.0,79,0.00,,,0.00,0,Wunderground v.1.15,2013-01-27 04:56:00,
2013-01-26 21:02:00,42.7,36.6,31.00,NW,315,0.0,0.0,79,0.00,,,0.00,0,Wunderground v.1.15,2013-01-27 05:02:00,
2013-01-26 21:06:00,42.5,36.4,31.00,NW,315,0.0,0.0,79,0.00,,,0.00,0,Wunderground v.1.15,2013-01-27 05:06:00,
2013-01-26 21:08:00,42.5,36.4,31.00,NW,315,0.0,0.0,79,0.00,,,0.00,0,Wunderground v.1.15,2013-01-27 05:08:00,
2013-01-26 21:14:00,42.2,36.2,31.00,NW,315,0.0,0.0,79,0.00,,,0.00,0,Wunderground v.1.15,2013-01-27 05:14:00,
2013-01-26 21:16:00,42.1,36.4,31.00,NW,315,0.0,0.0,80,0.00,,,0.00,0,Wunderground v.1.15,2013-01-27 05:16:00,
2013-01-26 21:22:00,41.9,36.2,31.00,NW,315,0.0,0.0,80,0.00,,,0.00,0,Wunderground v.1.15,2013-01-27 05:22:00,
2013-01-26 21:28:00,41.7,36.0,31.00,NW,315,0.0,0.0,80,0.00,,,0.00,0,Wunderground v.1.15,2013-01-27 05:28:00,
2013-01-26 21:36:00,41.4,36.0,31.00,NW,315,0.0,0.0,81,0.00,,,0.00,0,Wunderground v.1.15,2013-01-27 05:36:00,
2013-01-26 21:42:00,41.3,35.9,31.00,NW,315,0.0,0.0,81,0.00,,,0.00,0,Wunderground v.1.15,2013-01-27 05:42:00,
2013-01-26 21:48:00,41.3,36.2,31.00,NW,315,0.0,2.0,82,0.00,,,0.00,0,Wunderground v.1.15,2013-01-27 05:48:00,
2013-01-26 21:54:00,41.5,36.4,31.00,NW,315,0.0,0.0,82,0.00,,,0.00,0,Wunderground v.1.15,2013-01-27 05:54:00,
2013-01-26 22:00:00,41.4,36.3,31.00,NW,315,0.0,0.0,82,0.00,,,0.00,0,Wunderground v.1.15,2013-01-27 06:00:00,
2013-01-26 22:06:00,41.5,36.7,31.00,NW,315,0.0,0.0,83,0.00,,,0.00,0,Wunderground v.1.15,2013-01-27 06:06:00,
2013-01-26 22:12:00,41.5,36.7,31.01,NW,315,0.0,0.0,83,0.00,,,0.00,0,Wunderground v.1.15,2013-01-27 06:12:00,
2013-01-26 22:18:00,41.4,36.6,31.01,NW,315,0.0,0.0,83,0.00,,,0.00,0,Wunderground v.1.15,2013-01-27 06:18:00,
2013-01-26 22:24:00,41.3,36.5,31.01,NW,315,0.0,0.0,83,0.00,,,0.00,0,Wunderground v.1.15,2013-01-27 06:24:00,
2013-01-26 22:30:00,41.1,36.3,31.01,NW,315,0.0,0.0,83,0.00,,,0.00,0,Wunderground v.1.15,2013-01-27 06:30:00,
2013-01-26 22:36:00,41.1,36.3,31.01,NW,315,0.0,0.0,83,0.00,,,0.00,0,Wunderground v.1.15,2013-01-27 06:36:00,
2013-01-26 22:42:00,41.2,36.7,31.01,NW,315,0.0,0.0,84,0.00,,,0.00,0,Wunderground v.1.15,2013-01-27 06:42:00,
2013-01-26 22:48:00,41.2,36.4,31.01,NW,315,0.0,0.0,83,0.00,,,0.00,0,Wunderground v.1.15,2013-01-27 06:48:00,
2013-01-26 22:54:00,41.1,36.3,31.01,NW,315,0.0,0.0,83,0.00,,,0.00,0,Wunderground v.1.15,2013-01-27 06:54:00,
2013-01-26 23:00:00,41.0,36.5,31.01,NW,315,0.0,0.0,84,0.00,,,0.00,0,Wunderground v.1.15,2013-01-27 07:00:00,
2013-01-26 23:06:00,41.1,36.6,31.01,NW,315,0.0,0.0,84,0.00,,,0.00,0,Wunderground v.1.15,2013-01-27 07:06:00,
2013-01-26 23:14:00,41.6,37.4,31.01,NW,315,0.0,1.0,85,0.00,,,0.00,0,Wunderground v.1.15,2013-01-27 07:14:00,
2013-01-26 23:20:00,42.1,37.9,31.01,NW,315,1.0,1.0,85,0.00,,,0.00,0,Wunderground v.1.15,2013-01-27 07:20:00,
2013-01-26 23:26:00,42.6,38.4,31.01,WNW,303,1.0,1.0,85,0.00,,,0.00,0,Wunderground v.1.15,2013-01-27 07:26:00,
2013-01-26 23:32:00,43.3,39.1,31.01,WNW,288,1.0,2.0,85,0.00,,,0.00,0,Wunderground v.1.15,2013-01-27 07:32:00,
2013-01-26 23:38:00,43.8,39.6,31.01,WNW,284,1.0,3.0,85,0.00,,,0.00,0,Wunderground v.1.15,2013-01-27 07:38:00,
2013-01-26 23:44:00,44.4,39.9,31.01,West,273,2.0,4.0,84,0.00,,,0.00,0,Wunderground v.1.15,2013-01-27 07:44:00,
2013-01-26 23:50:00,44.8,40.3,31.01,West,277,2.0,2.0,84,0.00,,,0.00,0,Wunderground v.1.15,2013-01-27 07:50:00,
2013-01-26 23:56:00,45.0,40.1,31.01,West,275,1.0,2.0,83,0.00,,,0.00,0,Wunderground v.1.15,2013-01-27 07:56:00,